Terminal Aerodrome Forecast
Issued by NWS

Home | Current Version | Previous Version | Text Only | Print | Product List | Glossary On
Versions: 1 2 3 4 5 6 7 8 9 10 11 12
000
FTAK31 PAFA 271738
TAFABT
TAF
PABT 271738Z 2718/2818 16003KT P6SM FEW026 SCT090 BKN110
     FM272200 21005KT P6SM VCSH SCT050 BKN100
     FM280900 18004KT P6SM BKN050 OVC100=

USA.gov is the U.S. government's official web portal to all federal, state and local government web resources and services.